Time;durP1;ratioP1;P1;durP2;ratioP2;P2;SDS_P1;SDS_P2;PMS_P1;PMS_P2;Temp;Humidity;BMP_temperature;BMP_pressure;BME280_temperature;BME280_humidity;BME280_pressure;Samples;Min_cycle;Max_cycle;Signal;HPM_P1;HPM_P2
2021/08/16 00:00:38;;;;;;;;;;;;;;;23.50;62.87;97607.13;1751597;80;20845;-86
2021/08/16 00:03:09;;;;;;;;;;;;;;;23.50;62.94;97598.59;1713389;82;20996;-85
2021/08/16 00:05:35;;;;;;;;;;;;;;;23.50;62.97;97595.92;1723218;83;21971;-86
2021/08/16 00:08:08;;;;;;;;;;;;;;;23.52;63.00;97593.02;1744888;81;26071;-88
2021/08/16 00:10:34;;;;;;;;;;;;;;;23.53;63.05;97587.48;1753283;80;24475;-88
2021/08/16 00:13:00;;;;;;;;;;;;;;;23.56;63.08;97591.09;1750759;81;20289;-88
2021/08/16 00:15:27;;;;;;;;;;;;;;;23.58;63.10;97587.67;1748451;80;25041;-89
2021/08/16 00:17:53;;;;;;;;;;;;;;;23.61;63.11;97588.60;1746899;81;22102;-88
2021/08/16 00:20:19;;;;;;;;;;;;;;;23.63;63.15;97589.70;1753982;80;26101;-89
2021/08/16 00:22:45;;;;;;;;;;;;;;;23.62;63.18;97590.77;1750228;80;21017;-90
2021/08/16 00:25:11;;;;;;;;;;;;;;;23.64;63.24;97596.70;1755392;81;20305;-88
2021/08/16 00:27:37;;;;;;;;;;;;;;;23.62;63.27;97598.23;1720922;81;25004;-88
2021/08/16 00:30:03;;;;;;;;;;;;;;;23.64;63.31;97610.05;1752224;80;20921;-89
2021/08/16 00:32:29;;;;;;;;;;;;;;;23.60;63.35;97610.17;1740603;81;26016;-88
2021/08/16 00:34:55;;;;;;;;;;;;;;;23.58;63.38;97614.38;1726053;81;20263;-88
2021/08/16 00:37:23;;;;;;;;;;;;;;;23.55;63.43;97615.33;1753806;80;20228;-86
2021/08/16 00:39:49;;;;;;;;;;;;;;;23.53;63.50;97619.53;1746426;81;25010;-86
2021/08/16 00:42:15;;;;;;;;;;;;;;;23.53;63.55;97608.02;1721730;81;21009;-86
2021/08/16 00:44:42;;;;;;;;;;;;;;;23.53;63.59;97616.86;1753766;81;26000;-86
2021/08/16 00:47:08;;;;;;;;;;;;;;;23.51;63.65;97615.45;1754139;81;24409;-86
2021/08/16 00:49:35;;;;;;;;;;;;;;;23.51;63.70;97620.24;1752900;80;20854;-85
2021/08/16 00:52:04;;;;;;;;;;;;;;;23.50;63.75;97625.82;1745546;81;24983;-86
2021/08/16 00:54:31;;;;;;;;;;;;;;;23.49;63.78;97619.66;1708989;81;22839;-85
2021/08/16 00:57:01;;;;;;;;;;;;;;;23.45;63.84;97611.73;1724103;81;26061;-86
2021/08/16 00:59:27;;;;;;;;;;;;;;;23.40;63.89;97605.37;1752305;81;24446;-86
2021/08/16 01:01:53;;;;;;;;;;;;;;;23.29;63.93;97597.48;1750652;81;20410;-85
2021/08/16 01:04:19;;;;;;;;;;;;;;;23.24;64.01;97598.59;1715184;81;24965;-86
2021/08/16 01:06:46;;;;;;;;;;;;;;;23.15;64.12;97587.83;1715319;83;21861;-85
2021/08/16 01:09:12;;;;;;;;;;;;;;;23.04;64.23;97580.45;1747770;81;25981;-85
2021/08/16 01:11:38;;;;;;;;;;;;;;;22.98;64.38;97577.27;1721294;83;25429;-85
2021/08/16 01:14:04;;;;;;;;;;;;;;;22.92;64.50;97574.39;1713846;83;20295;-90
2021/08/16 01:16:35;;;;;;;;;;;;;;;22.84;64.63;97575.13;1750566;81;20284;-90
2021/08/16 01:19:01;;;;;;;;;;;;;;;22.81;64.77;97587.02;1747838;81;22016;-85
2021/08/16 01:21:27;;;;;;;;;;;;;;;22.74;64.93;97582.72;1747917;81;26041;-85
2021/08/16 01:23:53;;;;;;;;;;;;;;;22.68;65.07;97589.66;1748538;81;24421;-85
2021/08/16 01:26:19;;;;;;;;;;;;;;;22.60;65.19;97589.02;1750579;81;20316;-85
2021/08/16 01:28:45;;;;;;;;;;;;;;;22.62;65.37;97582.98;1743498;81;24959;-86
2021/08/16 01:31:11;;;;;;;;;;;;;;;22.59;65.46;97575.38;1746566;81;20257;-85
2021/08/16 01:33:38;;;;;;;;;;;;;;;22.51;65.52;97563.07;1731252;81;25948;-85
2021/08/16 01:36:06;;;;;;;;;;;;;;;22.57;65.65;97560.92;1751172;81;24448;-85
2021/08/16 01:38:33;;;;;;;;;;;;;;;22.68;65.77;97567.50;1753054;81;20746;-85
2021/08/16 01:41:00;;;;;;;;;;;;;;;22.70;65.84;97563.58;1750689;81;25027;-85
2021/08/16 01:43:27;;;;;;;;;;;;;;;22.74;65.89;97564.05;1714601;83;22570;-85
2021/08/16 01:45:53;;;;;;;;;;;;;;;22.77;65.93;97560.45;1756592;81;25971;-85
2021/08/16 01:48:19;;;;;;;;;;;;;;;22.78;65.96;97558.09;1731739;81;24260;-89
2021/08/16 01:50:45;;;;;;;;;;;;;;;22.83;65.99;97554.80;1734461;81;20316;-89
2021/08/16 01:53:13;;;;;;;;;;;;;;;22.86;66.03;97551.20;1744184;81;25233;-88
2021/08/16 01:55:39;;;;;;;;;;;;;;;22.85;66.05;97548.25;1746651;81;22085;-88
2021/08/16 01:58:06;;;;;;;;;;;;;;;22.74;66.08;97542.70;1730428;81;25924;-86
2021/08/16 02:00:32;;;;;;;;;;;;;;;22.61;66.15;97554.66;1749305;81;24500;-86
2021/08/16 02:02:58;;;;;;;;;;;;;;;22.45;66.22;97558.04;1745484;81;20298;-86
2021/08/16 02:05:26;;;;;;;;;;;;;;;22.33;66.34;97546.84;1719145;82;25003;-85
2021/08/16 02:07:52;;;;;;;;;;;;;;;22.20;66.49;97541.50;1762099;80;21902;-85
2021/08/16 02:10:18;;;;;;;;;;;;;;;22.09;66.68;97537.58;1751455;80;26009;-87
2021/08/16 02:12:45;;;;;;;;;;;;;;;22.01;66.89;97535.09;1732333;81;24426;-86
2021/08/16 02:15:12;;;;;;;;;;;;;;;21.96;67.06;97532.20;1734196;81;20399;-85
2021/08/16 02:17:38;;;;;;;;;;;;;;;21.88;67.20;97521.69;1735536;81;24949;-85
2021/08/16 02:20:05;;;;;;;;;;;;;;;21.81;67.33;97515.03;1735985;81;22055;-89
2021/08/16 02:22:31;;;;;;;;;;;;;;;21.77;67.48;97512.43;1737709;81;25947;-89
2021/08/16 02:25:03;;;;;;;;;;;;;;;21.77;67.60;97515.60;1734444;82;20888;-89
2021/08/16 02:27:30;;;;;;;;;;;;;;;21.76;67.77;97515.31;1733132;82;20576;-89
2021/08/16 02:29:56;;;;;;;;;;;;;;;21.76;67.88;97517.47;1734392;81;24982;-89
2021/08/16 02:32:22;;;;;;;;;;;;;;;21.79;67.95;97522.89;1735896;81;20318;-89
2021/08/16 02:34:48;;;;;;;;;;;;;;;21.94;68.05;97539.06;1733791;82;25942;-89
2021/08/16 02:37:14;;;;;;;;;;;;;;;22.02;68.15;97554.87;1734415;82;24488;-89
2021/08/16 02:39:40;;;;;;;;;;;;;;;22.07;68.23;97547.61;1734542;81;20236;-89
2021/08/16 02:42:11;;;;;;;;;;;;;;;22.03;68.26;97551.20;1734294;82;25832;-85
2021/08/16 02:44:34;;;;;;;;;;;;;;;21.97;68.31;97557.33;1734023;82;21965;-85
2021/08/16 02:47:00;;;;;;;;;;;;;;;22.03;68.40;97551.70;1733847;81;25960;-85
2021/08/16 02:49:27;;;;;;;;;;;;;;;22.07;68.46;97546.28;1735346;82;24480;-89
2021/08/16 02:51:53;;;;;;;;;;;;;;;22.01;68.52;97546.57;1731293;82;20274;-89
2021/08/16 02:54:19;;;;;;;;;;;;;;;21.94;68.58;97536.39;1735946;82;24961;-89
2021/08/16 02:56:45;;;;;;;;;;;;;;;21.90;68.66;97530.31;1732506;81;20242;-89
2021/08/16 02:59:11;;;;;;;;;;;;;;;21.96;68.76;97537.03;1735381;82;26164;-89
2021/08/16 03:01:39;;;;;;;;;;;;;;;22.10;68.85;97536.53;1736659;81;20253;-90
2021/08/16 03:04:10;;;;;;;;;;;;;;;22.18;68.94;97544.36;1730892;82;20350;-89
2021/08/16 03:06:33;;;;;;;;;;;;;;;22.20;69.00;97534.83;1731627;82;25734;-88
2021/08/16 03:08:59;;;;;;;;;;;;;;;22.14;69.05;97529.80;1732546;82;22648;-89
2021/08/16 03:11:26;;;;;;;;;;;;;;;22.05;69.08;97525.15;1728809;82;26013;-89
2021/08/16 03:13:53;;;;;;;;;;;;;;;21.97;69.17;97519.20;1728653;82;24407;-85
2021/08/16 03:16:19;;;;;;;;;;;;;;;21.97;69.25;97521.36;1731507;82;20234;-85
2021/08/16 03:18:45;;;;;;;;;;;;;;;22.04;69.34;97520.84;1730784;82;24938;-85
2021/08/16 03:21:13;;;;;;;;;;;;;;;22.11;69.42;97526.19;1730147;82;20748;-85
2021/08/16 03:23:39;;;;;;;;;;;;;;;22.15;69.48;97525.30;1730353;82;26081;-86
2021/08/16 03:26:08;;;;;;;;;;;;;;;22.13;69.50;97525.48;1727566;82;24504;-85
2021/08/16 03:28:34;;;;;;;;;;;;;;;22.11;69.56;97520.35;1730987;82;20200;-86
2021/08/16 03:31:00;;;;;;;;;;;;;;;22.10;69.57;97516.55;1728209;82;24977;-85
2021/08/16 03:33:31;;;;;;;;;;;;;;;22.06;69.60;97512.14;1731047;81;20232;-85
2021/08/16 03:35:57;;;;;;;;;;;;;;;21.97;69.67;97509.37;1729878;82;25933;-85
2021/08/16 03:38:24;;;;;;;;;;;;;;;21.93;69.67;97504.61;1729620;82;24580;-89
2021/08/16 03:40:56;;;;;;;;;;;;;;;21.94;69.69;97503.09;1729879;82;20573;-89
2021/08/16 03:43:22;;;;;;;;;;;;;;;21.99;69.69;97497.15;1727521;82;25029;-90
2021/08/16 03:45:48;;;;;;;;;;;;;;;22.00;69.71;97498.29;1732293;81;21931;-89
2021/08/16 03:48:14;;;;;;;;;;;;;;;22.01;69.71;97499.94;1726599;82;25988;-90
2021/08/16 03:50:42;;;;;;;;;;;;;;;22.03;69.70;97493.91;1708745;82;20189;-90
2021/08/16 03:53:08;;;;;;;;;;;;;;;22.02;69.69;97497.59;1730240;82;20515;-90
2021/08/16 03:55:35;;;;;;;;;;;;;;;22.02;69.69;97492.26;1729965;82;20262;-89
2021/08/16 03:58:01;;;;;;;;;;;;;;;22.01;69.69;97489.79;1725228;82;22047;-89
2021/08/16 04:00:27;;;;;;;;;;;;;;;22.00;69.70;97493.47;1729485;82;21101;-89
2021/08/16 04:02:53;;;;;;;;;;;;;;;22.00;69.72;97499.63;1729663;82;20314;-89
2021/08/16 04:05:25;;;;;;;;;;;;;;;21.99;69.73;97495.31;1728936;82;20318;-89
2021/08/16 04:07:55;;;;;;;;;;;;;;;21.95;69.73;97495.41;1726630;82;25006;-89
2021/08/16 04:10:23;;;;;;;;;;;;;;;21.93;69.74;97500.08;1705962;82;22016;-90
2021/08/16 04:12:51;;;;;;;;;;;;;;;21.96;69.78;97501.56;1731453;82;26097;-88
2021/08/16 04:15:18;;;;;;;;;;;;;;;21.94;69.77;97491.10;1732129;82;24597;-88
2021/08/16 04:17:45;;;;;;;;;;;;;;;21.94;69.78;97499.57;1729475;82;20632;-86
2021/08/16 04:20:12;;;;;;;;;;;;;;;21.89;69.78;97494.85;1730163;82;25038;-89
2021/08/16 04:22:38;;;;;;;;;;;;;;;21.90;69.81;97494.34;1732899;82;22091;-89
2021/08/16 04:25:06;;;;;;;;;;;;;;;21.87;69.81;97498.25;1731268;82;25984;-89
2021/08/16 04:27:42;;;;;;;;;;;;;;;21.87;69.84;97498.25;1706440;82;39236;-88
2021/08/16 04:30:06;;;;;;;;;;;;;;;21.81;69.88;97485.73;1732688;82;20236;-88
2021/08/16 04:32:32;;;;;;;;;;;;;;;21.89;69.92;97496.69;1731406;82;24374;-88
2021/08/16 04:34:59;;;;;;;;;;;;;;;21.92;69.95;97499.80;1730075;82;21928;-88
2021/08/16 04:37:32;;;;;;;;;;;;;;;21.96;69.98;97505.56;1730036;81;22528;-88
2021/08/16 04:39:58;;;;;;;;;;;;;;;21.98;70.02;97504.32;1728923;82;24654;-88
2021/08/16 04:42:30;;;;;;;;;;;;;;;22.01;70.07;97509.77;1729510;82;20356;-88
2021/08/16 04:45:06;;;;;;;;;;;;;;;22.02;70.09;97506.91;1731313;82;25015;-89
2021/08/16 04:47:32;;;;;;;;;;;;;;;22.07;70.12;97508.97;1708084;82;22032;-89
2021/08/16 04:50:00;;;;;;;;;;;;;;;22.10;70.14;97509.37;1728955;82;21011;-89
2021/08/16 04:52:26;;;;;;;;;;;;;;;22.15;70.18;97508.77;1758871;81;24689;-89
2021/08/16 04:54:52;;;;;;;;;;;;;;;22.18;70.17;97514.22;1759447;81;20218;-88
2021/08/16 04:57:29;;;;;;;;;;;;;;;22.21;70.19;97514.62;1730124;82;25056;-89
2021/08/16 04:59:55;;;;;;;;;;;;;;;22.23;70.21;97515.76;1732361;82;21969;-88
2021/08/16 05:02:21;;;;;;;;;;;;;;;22.28;70.25;97521.30;1727240;82;26363;-88
2021/08/16 05:04:53;;;;;;;;;;;;;;;22.37;70.28;97524.89;1731431;82;24466;-89
2021/08/16 05:07:18;;;;;;;;;;;;;;;22.43;70.28;97529.41;1736080;82;20332;-89
2021/08/16 05:09:44;;;;;;;;;;;;;;;22.49;70.29;97537.94;1738496;82;24532;-88
2021/08/16 05:12:10;;;;;;;;;;;;;;;22.59;70.30;97536.70;1734490;81;22618;-85
2021/08/16 05:14:36;;;;;;;;;;;;;;;22.65;70.31;97541.22;1735737;82;20970;-85
2021/08/16 05:17:02;;;;;;;;;;;;;;;22.67;70.35;97544.52;1735688;82;25268;-85
2021/08/16 05:19:29;;;;;;;;;;;;;;;22.67;70.37;97546.67;1729351;82;20271;-85
2021/08/16 05:21:58;;;;;;;;;;;;;;;22.64;70.37;97556.40;1737004;82;25024;-85
2021/08/16 05:24:24;;;;;;;;;;;;;;;22.63;70.39;97560.63;1712032;82;21961;-84
2021/08/16 05:26:51;;;;;;;;;;;;;;;22.62;70.44;97558.98;1735934;81;26030;-85
2021/08/16 05:29:19;;;;;;;;;;;;;;;22.65;70.47;97564.71;1734293;82;24489;-84
2021/08/16 05:31:45;;;;;;;;;;;;;;;22.72;70.48;97566.09;1733315;82;20243;-86
2021/08/16 05:34:11;;;;;;;;;;;;;;;22.72;70.50;97565.58;1732241;81;20775;-89
2021/08/16 05:36:37;;;;;;;;;;;;;;;22.76;70.50;97563.31;1735332;82;20250;-89
2021/08/16 05:39:03;;;;;;;;;;;;;;;22.83;70.50;97572.97;1732273;82;26018;-90
2021/08/16 05:41:30;;;;;;;;;;;;;;;22.89;70.51;97571.33;1732712;82;24480;-89
2021/08/16 05:43:56;;;;;;;;;;;;;;;22.96;70.56;97573.48;1732940;82;20566;-89
2021/08/16 05:46:22;;;;;;;;;;;;;;;23.05;70.59;97580.76;1729299;82;24985;-89
2021/08/16 05:48:48;;;;;;;;;;;;;;;23.12;70.60;97580.25;1731917;82;20425;-89
2021/08/16 05:51:14;;;;;;;;;;;;;;;23.16;70.61;97584.14;1733841;81;21081;-90
2021/08/16 05:53:40;;;;;;;;;;;;;;;23.24;70.63;97592.73;1733330;82;24417;-90
2021/08/16 05:56:06;;;;;;;;;;;;;;;23.28;70.63;97593.16;1735125;81;20522;-86
2021/08/16 05:58:32;;;;;;;;;;;;;;;23.28;70.61;97599.33;1732545;81;20209;-85
2021/08/16 06:00:58;;;;;;;;;;;;;;;23.30;70.62;97598.58;1738786;81;22106;-85
2021/08/16 06:03:24;;;;;;;;;;;;;;;23.33;70.61;97595.52;1734705;82;26031;-85
2021/08/16 06:05:51;;;;;;;;;;;;;;;23.37;70.61;97593.23;1721157;82;24484;-85
2021/08/16 06:08:17;;;;;;;;;;;;;;;23.41;70.57;97594.45;1715804;82;20313;-85
2021/08/16 06:10:44;;;;;;;;;;;;;;;23.37;70.53;97594.58;1715898;82;21533;-86
2021/08/16 06:13:10;;;;;;;;;;;;;;;23.36;70.45;97592.41;1718938;82;22146;-86
2021/08/16 06:15:36;;;;;;;;;;;;;;;23.35;70.35;97596.62;1718515;82;21138;-85
2021/08/16 06:18:02;;;;;;;;;;;;;;;23.36;70.26;97584.91;1720923;82;24537;-86
2021/08/16 06:20:28;;;;;;;;;;;;;;;23.38;70.21;97582.05;1712574;82;20344;-85
2021/08/16 06:22:54;;;;;;;;;;;;;;;23.38;70.15;97580.71;1709346;82;25011;-85
2021/08/16 06:25:20;;;;;;;;;;;;;;;23.37;70.09;97579.89;1745124;81;21972;-85
2021/08/16 06:27:46;;;;;;;;;;;;;;;23.36;70.02;97575.06;1743600;81;26014;-88
2021/08/16 06:30:12;;;;;;;;;;;;;;;23.39;69.96;97575.17;1745785;81;24375;-89
2021/08/16 06:32:38;;;;;;;;;;;;;;;23.43;69.97;97571.55;1746485;81;20564;-88
2021/08/16 06:35:07;;;;;;;;;;;;;;;23.47;69.96;97577.63;1744274;81;20530;-88
2021/08/16 06:37:37;;;;;;;;;;;;;;;23.50;69.94;97571.89;1744486;81;21944;-88
2021/08/16 06:40:03;;;;;;;;;;;;;;;23.54;69.88;97575.77;1722937;82;26164;-85
2021/08/16 06:42:30;;;;;;;;;;;;;;;23.59;69.85;97571.95;1713721;82;24371;-86
2021/08/16 06:44:57;;;;;;;;;;;;;;;23.62;69.83;97581.41;1716341;82;20284;-85
2021/08/16 06:47:23;;;;;;;;;;;;;;;23.63;69.71;97572.34;1696672;82;24902;-86
2021/08/16 06:49:49;;;;;;;;;;;;;;;23.66;69.53;97586.13;1717325;82;21976;-86
2021/08/16 06:52:15;;;;;;;;;;;;;;;23.70;69.33;97580.65;1718479;82;25978;-86
2021/08/16 06:54:41;;;;;;;;;;;;;;;23.75;69.17;97586.18;1715530;82;20636;-86
2021/08/16 06:57:07;;;;;;;;;;;;;;;23.82;68.99;97599.52;1716462;82;20470;-87
2021/08/16 06:59:33;;;;;;;;;;;;;;;23.89;68.85;97590.16;1696676;82;20412;-87
2021/08/16 07:02:00;;;;;;;;;;;;;;;23.96;68.78;97585.58;1718862;82;21962;-89
2021/08/16 07:04:26;;;;;;;;;;;;;;;24.03;68.70;97591.72;1716852;82;26953;-89
2021/08/16 07:06:53;;;;;;;;;;;;;;;24.09;68.53;97596.22;1736413;82;20249;-89
2021/08/16 07:09:21;;;;;;;;;;;;;;;24.14;68.27;97594.55;1736192;82;20269;-90
2021/08/16 07:11:48;;;;;;;;;;;;;;;24.21;68.04;97595.89;1732477;82;25129;-90
2021/08/16 07:14:14;;;;;;;;;;;;;;;24.27;67.73;97600.91;1735263;81;22126;-89
2021/08/16 07:16:40;;;;;;;;;;;;;;;24.34;67.45;97605.67;1736480;81;25988;-90
2021/08/16 07:19:06;;;;;;;;;;;;;;;24.39;67.16;97605.34;1736275;81;25124;-86
2021/08/16 07:21:32;;;;;;;;;;;;;;;24.46;66.89;97614.16;1730247;82;20372;-86
2021/08/16 07:23:58;;;;;;;;;;;;;;;24.54;66.73;97611.75;1731445;81;25015;-86
2021/08/16 07:26:24;;;;;;;;;;;;;;;24.58;66.43;97619.64;1736478;82;22027;-86
2021/08/16 07:28:50;;;;;;;;;;;;;;;24.62;66.04;97617.34;1735078;82;26079;-87
2021/08/16 07:31:17;;;;;;;;;;;;;;;24.68;65.76;97620.50;1737257;82;25304;-86
2021/08/16 07:33:45;;;;;;;;;;;;;;;24.72;65.43;97615.01;1712580;82;20158;-90
2021/08/16 07:36:11;;;;;;;;;;;;;;;24.76;65.04;97627.77;1735375;81;20846;-90
2021/08/16 07:38:38;;;;;;;;;;;;;;;24.82;64.73;97622.86;1736746;82;22056;-89
2021/08/16 07:41:08;;;;;;;;;;;;;;;24.85;64.44;97620.28;1732454;81;26050;-86
2021/08/16 07:43:34;;;;;;;;;;;;;;;24.91;64.22;97620.27;1735686;82;24606;-86
2021/08/16 07:46:00;;;;;;;;;;;;;;;24.96;64.06;97621.77;1737058;82;20575;-86
2021/08/16 07:48:26;;;;;;;;;;;;;;;25.01;63.80;97633.16;1737370;81;24930;-86
2021/08/16 07:50:52;;;;;;;;;;;;;;;25.09;63.58;97632.91;1730123;82;20935;-88
2021/08/16 07:53:18;;;;;;;;;;;;;;;25.16;63.37;97633.64;1735898;82;25948;-88
2021/08/16 07:55:44;;;;;;;;;;;;;;;25.23;63.17;97625.56;1734831;82;20237;-88
2021/08/16 07:58:10;;;;;;;;;;;;;;;25.30;62.86;97633.02;1735931;81;20655;-88
2021/08/16 08:00:36;;;;;;;;;;;;;;;25.35;62.66;97635.86;1732985;82;25032;-88
2021/08/16 08:03:02;;;;;;;;;;;;;;;25.39;62.40;97634.38;1733890;81;21974;-88
2021/08/16 08:05:28;;;;;;;;;;;;;;;25.42;62.20;97631.23;1730917;81;21010;-87
2021/08/16 08:07:55;;;;;;;;;;;;;;;25.43;62.03;97639.06;1734901;82;24521;-88
2021/08/16 08:10:27;;;;;;;;;;;;;;;25.48;61.89;97634.89;1734703;82;20210;-87
2021/08/16 08:13:02;;;;;;;;;;;;;;;25.53;61.70;97639.89;1734568;81;25167;-87
2021/08/16 08:15:29;;;;;;;;;;;;;;;25.59;61.48;97639.56;1733397;81;20176;-87
2021/08/16 08:17:55;;;;;;;;;;;;;;;25.61;61.25;97636.97;1736612;82;21044;-87
2021/08/16 08:20:21;;;;;;;;;;;;;;;25.64;60.98;97637.86;1735516;82;24468;-87
2021/08/16 08:22:49;;;;;;;;;;;;;;;25.70;60.86;97636.14;1731560;82;20964;-87
2021/08/16 08:25:15;;;;;;;;;;;;;;;25.75;60.76;97635.78;1735531;81;25237;-87
2021/08/16 08:27:41;;;;;;;;;;;;;;;25.79;60.61;97624.94;1729275;82;21942;-87
2021/08/16 08:30:08;;;;;;;;;;;;;;;25.80;60.34;97629.77;1734244;82;21053;-88
2021/08/16 08:32:48;;;;;;;;;;;;;;;25.81;60.06;97635.41;1736194;81;24512;-85
2021/08/16 08:35:14;;;;;;;;;;;;;;;25.83;59.81;97638.70;1736030;81;20669;-85
2021/08/16 08:37:40;;;;;;;;;;;;;;;25.91;59.69;97633.05;1731463;81;24964;-85
2021/08/16 08:40:07;;;;;;;;;;;;;;;25.97;59.68;97630.78;1733113;81;22050;-85
2021/08/16 08:42:33;;;;;;;;;;;;;;;26.07;59.66;97624.92;1731956;82;26086;-85
2021/08/16 08:45:00;;;;;;;;;;;;;;;26.16;59.63;97621.70;1735403;81;24484;-85
2021/08/16 08:47:26;;;;;;;;;;;;;;;26.22;59.42;97625.34;1735784;82;20226;-85
2021/08/16 08:49:52;;;;;;;;;;;;;;;26.27;59.14;97617.98;1733283;81;20215;-89
2021/08/16 08:52:19;;;;;;;;;;;;;;;26.33;58.97;97619.77;1735763;82;21906;-89
2021/08/16 08:54:45;;;;;;;;;;;;;;;26.38;58.81;97617.22;1734580;82;26239;-89
2021/08/16 08:57:13;;;;;;;;;;;;;;;26.39;58.52;97617.52;1734608;82;20852;-89
2021/08/16 08:59:39;;;;;;;;;;;;;;;26.39;58.20;97618.86;1734367;82;20271;-88
2021/08/16 09:02:07;;;;;;;;;;;;;;;26.42;58.06;97618.39;1710693;82;20774;-87
2021/08/16 09:04:33;;;;;;;;;;;;;;;26.50;57.95;97614.06;1733820;81;21819;-85
2021/08/16 09:06:59;;;;;;;;;;;;;;;26.58;57.87;97608.35;1733421;82;20981;-85
2021/08/16 09:09:27;;;;;;;;;;;;;;;26.65;57.77;97607.74;1738109;81;24643;-85
2021/08/16 09:11:53;;;;;;;;;;;;;;;26.76;57.61;97608.81;1732945;81;20246;-85
2021/08/16 09:14:20;;;;;;;;;;;;;;;26.87;57.47;97612.05;1734685;81;25297;-84
2021/08/16 09:16:51;;;;;;;;;;;;;;;26.95;57.29;97615.24;1732783;81;22109;-85
2021/08/16 09:19:19;;;;;;;;;;;;;;;27.09;57.25;97611.83;1733255;82;26026;-85
2021/08/16 09:21:53;;;;;;;;;;;;;;;27.17;56.87;97615.50;1735404;82;24519;-85
2021/08/16 09:24:15;;;;;;;;;;;;;;;27.20;56.43;97615.58;1732181;82;20206;-85
2021/08/16 09:26:46;;;;;;;;;;;;;;;27.22;56.02;97609.45;1733177;82;25637;-85
2021/08/16 09:29:13;;;;;;;;;;;;;;;27.23;55.85;97609.72;1734499;82;21982;-85
2021/08/16 09:31:42;;;;;;;;;;;;;;;27.15;55.52;97613.59;1735159;81;27009;-85
2021/08/16 09:34:08;;;;;;;;;;;;;;;27.09;55.26;97615.04;1718921;82;24508;-85
2021/08/16 09:36:43;;;;;;;;;;;;;;;27.11;55.18;97616.45;1734951;82;20327;-85
2021/08/16 09:39:22;;;;;;;;;;;;;;;27.14;55.07;97609.78;1732220;81;25135;-86
2021/08/16 09:41:50;;;;;;;;;;;;;;;27.20;54.99;97615.58;1736448;80;21966;-86
2021/08/16 09:44:16;;;;;;;;;;;;;;;27.29;54.94;97608.80;1725221;82;26849;-86
2021/08/16 09:46:44;;;;;;;;;;;;;;;27.36;54.94;97605.47;1718193;81;24401;-86
2021/08/16 09:49:11;;;;;;;;;;;;;;;27.39;54.88;97611.19;1743338;81;20225;-86
2021/08/16 09:51:37;;;;;;;;;;;;;;;27.40;54.89;97609.32;1762164;79;25174;-86
2021/08/16 09:54:04;;;;;;;;;;;;;;;27.42;54.86;97599.17;1721927;81;20416;-86
2021/08/16 09:56:33;;;;;;;;;;;;;;;27.45;54.81;97606.75;1730776;82;20964;-88
2021/08/16 09:59:11;;;;;;;;;;;;;;;27.51;54.72;97598.30;1764581;80;25453;-89
2021/08/16 10:01:43;;;;;;;;;;;;;;;27.53;54.58;97598.38;1730179;81;20205;-88
2021/08/16 10:04:12;;;;;;;;;;;;;;;27.64;54.65;97601.58;1731915;81;25870;-85
2021/08/16 10:06:39;;;;;;;;;;;;;;;27.70;54.63;97591.22;1723836;81;22076;-84
2021/08/16 10:09:05;;;;;;;;;;;;;;;27.78;54.50;97590.84;1717717;82;26117;-85
2021/08/16 10:11:31;;;;;;;;;;;;;;;27.86;54.43;97581.60;1721638;82;24657;-85
2021/08/16 10:13:57;;;;;;;;;;;;;;;27.93;54.35;97576.09;1716358;82;20362;-89
2021/08/16 10:16:28;;;;;;;;;;;;;;;27.97;54.17;97574.03;1734088;81;20262;-86
2021/08/16 10:18:56;;;;;;;;;;;;;;;28.00;54.05;97566.81;1735402;81;21972;-86
2021/08/16 10:21:22;;;;;;;;;;;;;;;28.05;53.92;97559.36;1739450;81;25988;-86
2021/08/16 10:23:50;;;;;;;;;;;;;;;28.09;53.77;97562.70;1737205;81;24450;-84
2021/08/16 10:26:27;;;;;;;;;;;;;;;28.11;53.44;97563.79;1735948;81;20144;-84
2021/08/16 10:28:55;;;;;;;;;;;;;;;28.14;53.13;97555.28;1732329;81;25004;-85
2021/08/16 10:31:28;;;;;;;;;;;;;;;28.20;53.04;97559.16;1737600;81;22809;-86
2021/08/16 10:33:55;;;;;;;;;;;;;;;28.25;52.95;97554.42;1715798;82;25963;-88
2021/08/16 10:36:26;;;;;;;;;;;;;;;28.30;52.81;97550.48;1715846;82;24401;-88
2021/08/16 10:38:57;;;;;;;;;;;;;;;28.35;52.64;97549.22;1730209;81;20212;-88
2021/08/16 10:41:25;;;;;;;;;;;;;;;28.42;52.41;97555.80;1743065;81;24952;-89
2021/08/16 10:43:51;;;;;;;;;;;;;;;28.45;52.05;97549.39;1740461;81;21980;-89
2021/08/16 10:46:23;;;;;;;;;;;;;;;28.50;51.82;97550.01;1742885;81;25987;-89
2021/08/16 10:49:02;;;;;;;;;;;;;;;28.57;51.85;97552.84;1715757;82;24352;-87
2021/08/16 10:51:39;;;;;;;;;;;;;;;28.62;51.49;97548.08;1717318;82;20210;-89
2021/08/16 10:54:05;;;;;;;;;;;;;;;28.71;51.41;97546.08;1715680;82;25010;-86
2021/08/16 10:56:32;;;;;;;;;;;;;;;28.79;51.29;97550.81;1712363;82;22060;-86
2021/08/16 10:58:59;;;;;;;;;;;;;;;28.85;51.21;97547.14;1713669;82;26051;-86
2021/08/16 11:01:26;;;;;;;;;;;;;;;28.91;51.20;97550.99;1714387;82;24393;-86
2021/08/16 11:03:56;;;;;;;;;;;;;;;29.03;51.06;97550.91;1712115;82;20241;-86
2021/08/16 11:06:22;;;;;;;;;;;;;;;29.13;50.95;97545.67;1713564;82;25051;-86
2021/08/16 11:08:48;;;;;;;;;;;;;;;29.24;50.94;97546.66;1727913;81;20255;-86
2021/08/16 11:11:14;;;;;;;;;;;;;;;29.31;50.71;97545.41;1730564;82;26018;-86
2021/08/16 11:13:41;;;;;;;;;;;;;;;29.33;50.23;97544.67;1732314;82;24563;-86
2021/08/16 11:16:07;;;;;;;;;;;;;;;29.38;50.07;97540.69;1730201;81;20599;-86
2021/08/16 11:18:33;;;;;;;;;;;;;;;29.42;49.78;97542.34;1728785;82;24967;-86
2021/08/16 11:21:00;;;;;;;;;;;;;;;29.39;49.47;97534.24;1726793;82;21980;-85
2021/08/16 11:23:27;;;;;;;;;;;;;;;29.39;49.27;97528.03;1731091;82;25957;-85
2021/08/16 11:25:54;;;;;;;;;;;;;;;29.39;49.06;97528.85;1729365;82;24545;-85
2021/08/16 11:28:21;;;;;;;;;;;;;;;29.43;48.96;97529.16;1730696;82;20458;-85
2021/08/16 11:30:48;;;;;;;;;;;;;;;29.34;48.64;97532.01;1724786;82;25757;-85
2021/08/16 11:33:21;;;;;;;;;;;;;;;29.29;48.55;97531.37;1731149;82;22108;-85
2021/08/16 11:35:47;;;;;;;;;;;;;;;29.33;48.57;97532.54;1728434;82;25586;-86
2021/08/16 11:38:16;;;;;;;;;;;;;;;29.39;48.45;97526.16;1730038;82;20333;-89
2021/08/16 11:40:45;;;;;;;;;;;;;;;29.46;48.24;97532.16;1711378;82;20245;-89
2021/08/16 11:43:24;;;;;;;;;;;;;;;29.50;48.07;97522.53;1728445;82;25112;-89
2021/08/16 11:45:51;;;;;;;;;;;;;;;29.46;47.84;97526.77;1732352;82;21588;-89
2021/08/16 11:48:19;;;;;;;;;;;;;;;29.43;47.74;97526.46;1729269;82;26239;-85
2021/08/16 11:50:44;;;;;;;;;;;;;;;29.44;47.68;97520.83;1728082;82;24650;-85
2021/08/16 11:53:10;;;;;;;;;;;;;;;29.43;47.41;97520.54;1727907;82;20894;-88
2021/08/16 11:55:36;;;;;;;;;;;;;;;29.46;47.34;97522.72;1729668;82;24975;-88
2021/08/16 11:58:03;;;;;;;;;;;;;;;29.48;47.22;97513.05;1731010;82;21978;-83
2021/08/16 12:00:36;;;;;;;;;;;;;;;29.50;47.22;97511.75;1728785;82;26089;-88
2021/08/16 12:03:02;;;;;;;;;;;;;;;29.51;47.18;97506.61;1731454;82;24549;-88
2021/08/16 12:05:28;;;;;;;;;;;;;;;29.53;46.99;97508.53;1732275;82;20612;-88
2021/08/16 12:07:54;;;;;;;;;;;;;;;29.54;46.75;97514.74;1719985;82;25020;-89
2021/08/16 12:10:23;;;;;;;;;;;;;;;29.58;46.75;97508.30;1714427;82;22014;-88
2021/08/16 12:13:01;;;;;;;;;;;;;;;29.63;46.79;97497.05;1718122;82;26086;-89
2021/08/16 12:15:41;;;;;;;;;;;;;;;29.64;46.51;97501.38;1718345;82;25394;-90
2021/08/16 12:18:07;;;;;;;;;;;;;;;29.63;46.22;97496.23;1722411;82;20236;-89
2021/08/16 12:20:43;;;;;;;;;;;;;;;29.63;46.11;97492.19;1716936;82;24960;-89
2021/08/16 12:23:10;;;;;;;;;;;;;;;29.65;46.07;97490.88;1718949;82;22104;-89
2021/08/16 12:25:53;;;;;;;;;;;;;;;29.68;46.08;97482.80;1716613;82;26062;-89
2021/08/16 12:28:19;;;;;;;;;;;;;;;29.68;45.84;97480.92;1720752;82;24542;-87
2021/08/16 12:30:50;;;;;;;;;;;;;;;29.66;45.61;97483.61;1715063;82;20765;-88
2021/08/16 12:33:21;;;;;;;;;;;;;;;29.69;45.70;97479.05;1719321;82;24985;-87
2021/08/16 12:36:06;;;;;;;;;;;;;;;29.70;45.68;97482.03;1716690;82;21987;-89
2021/08/16 12:38:32;;;;;;;;;;;;;;;29.74;45.67;97477.22;1764383;81;26096;-88
2021/08/16 12:41:00;;;;;;;;;;;;;;;29.81;45.68;97485.94;1766942;79;24287;-88
2021/08/16 12:43:27;;;;;;;;;;;;;;;29.82;45.58;97480.02;1766685;79;20332;-88
2021/08/16 12:45:57;;;;;;;;;;;;;;;29.80;45.66;97482.95;1760795;81;25188;-89
2021/08/16 12:48:23;;;;;;;;;;;;;;;29.77;45.70;97474.03;1759894;81;22750;-88